METAR Data
IDs: Format: Raw Decoded Include TAF

Data at: 0511 UTC 22 Oct 2018

EGBB 220450Z VRB02KT CAVOK 05/03 Q1036

EGVN 220450Z 36004KT CAVOK 06/03 Q1035 NOSIG

EGNX 220450Z 29005KT CAVOK 04/01 Q1035